createdAt,value
2018-02-04T00:00:08.980Z,89.9
2018-02-04T00:01:11.399Z,89.8
2018-02-04T00:02:14.119Z,89.6
2018-02-04T00:03:16.832Z,89.6
2018-02-04T00:04:19.543Z,89.5
2018-02-04T00:05:21.973Z,89.5
2018-02-04T00:06:24.392Z,89.4
2018-02-04T00:07:26.814Z,89.4
2018-02-04T00:08:29.255Z,89.4
2018-02-04T00:09:31.680Z,89.4
2018-02-04T00:10:34.095Z,89.5
2018-02-04T00:11:36.812Z,89.4
2018-02-04T00:12:39.230Z,89.5
2018-02-04T00:13:41.666Z,89.6
2018-02-04T00:14:44.094Z,89.9
2018-02-04T00:15:46.508Z,89.9
2018-02-04T00:16:48.934Z,90
2018-02-04T00:17:51.632Z,90
2018-02-04T00:18:54.060Z,90
2018-02-04T00:19:56.491Z,90
2018-02-04T00:20:59.199Z,90
2018-02-04T00:22:01.907Z,89.8
2018-02-04T00:23:04.340Z,89.7
2018-02-04T00:24:06.764Z,89.5
2018-02-04T00:25:09.474Z,89.7
2018-02-04T00:26:11.890Z,89.7
2018-02-04T00:27:14.308Z,89.7
2018-02-04T00:28:16.734Z,89.7
2018-02-04T00:29:19.158Z,89.7
2018-02-04T00:30:21.869Z,89.7
2018-02-04T00:31:24.577Z,89.6
2018-02-04T00:32:26.997Z,89.6
2018-02-04T00:33:29.432Z,89.5
2018-02-04T00:34:31.857Z,89.5
2018-02-04T00:35:34.281Z,89.6
2018-02-04T00:36:36.700Z,89.4
2018-02-04T00:37:39.123Z,89.4
2018-02-04T00:38:41.549Z,89.4
2018-02-04T00:39:44.278Z,89.7
2018-02-04T00:40:46.693Z,89.7
2018-02-04T00:41:49.124Z,89.7
2018-02-04T00:42:51.545Z,89.7
2018-02-04T00:43:53.969Z,89.6
2018-02-04T00:44:56.402Z,89.6
2018-02-04T00:45:58.826Z,89.6
2018-02-04T00:47:01.549Z,89.5
2018-02-04T00:48:03.997Z,89.5
2018-02-04T00:49:06.689Z,89.4
2018-02-04T00:50:09.122Z,89.4
2018-02-04T00:51:11.834Z,89.5
2018-02-04T00:52:14.253Z,89.4
2018-02-04T00:53:16.676Z,89.4
2018-02-04T00:54:19.107Z,89.4
2018-02-04T00:55:21.528Z,89.3
2018-02-04T00:56:23.942Z,89.3
2018-02-04T00:57:26.651Z,89.1
2018-02-04T00:58:29.089Z,89.3
2018-02-04T00:59:31.819Z,89
2018-02-04T01:00:34.532Z,89.1
2018-02-04T01:01:37.248Z,89.1
2018-02-04T01:02:39.955Z,89.1
2018-02-04T01:03:42.386Z,89.1
2018-02-04T01:04:44.861Z,89.1
2018-02-04T01:05:47.219Z,89.1
2018-02-04T01:06:49.688Z,89
2018-02-04T01:07:52.365Z,88.9
2018-02-04T01:08:54.796Z,88.8
2018-02-04T01:09:57.230Z,88.8
2018-02-04T01:10:59.642Z,88.8
2018-02-04T01:12:02.062Z,88.7
2018-02-04T01:13:04.502Z,88.7
2018-02-04T01:14:06.927Z,88.6
2018-02-04T01:15:09.346Z,88.5
2018-02-04T01:16:11.781Z,88.4
2018-02-04T01:17:14.201Z,88.3
2018-02-04T01:18:16.630Z,88.3
2018-02-04T01:19:19.064Z,88.5
2018-02-04T01:20:21.477Z,88.5
2018-02-04T01:21:23.904Z,88.4
2018-02-04T01:22:26.328Z,88.4
2018-02-04T01:23:29.035Z,88.3
2018-02-04T01:24:31.454Z,88.2
2018-02-04T01:25:33.881Z,88.2
2018-02-04T01:26:36.311Z,88.2
2018-02-04T01:27:38.729Z,88.3
2018-02-04T01:28:41.154Z,88.6
2018-02-04T01:29:43.585Z,88.5
2018-02-04T01:30:45.998Z,88.4
2018-02-04T01:31:48.429Z,88.4
2018-02-04T01:32:50.861Z,88.5
2018-02-04T01:33:53.276Z,88.7
2018-02-04T01:34:55.704Z,88.8
2018-02-04T01:35:58.412Z,88.9
2018-02-04T01:37:00.840Z,89.1
2018-02-04T01:38:03.280Z,89.1
2018-02-04T01:39:05.703Z,89.2
2018-02-04T01:40:08.126Z,89.2
2018-02-04T01:41:10.546Z,89.1
2018-02-04T01:42:12.976Z,89.3
2018-02-04T01:43:15.400Z,89.1
2018-02-04T01:44:17.834Z,89.2
2018-02-04T01:45:20.261Z,89.2
2018-02-04T01:46:22.680Z,89.2
2018-02-04T01:47:25.112Z,89.2
2018-02-04T01:48:27.536Z,89
2018-02-04T01:49:29.958Z,89
2018-02-04T01:50:32.668Z,89
2018-02-04T01:51:35.084Z,88.9
2018-02-04T01:52:37.514Z,88.8
2018-02-04T01:53:39.939Z,88.8
2018-02-04T01:54:42.383Z,88.8
2018-02-04T01:55:44.795Z,88.8
2018-02-04T01:56:47.225Z,88.8
2018-02-04T01:57:49.654Z,88.8
2018-02-04T01:58:52.074Z,88.8
2018-02-04T01:59:54.492Z,88.5
2018-02-04T02:00:56.922Z,88.3
2018-02-04T02:01:59.331Z,88.3
2018-02-04T02:03:01.773Z,88.3
2018-02-04T02:04:04.199Z,88.3
2018-02-04T02:05:06.902Z,88.3
2018-02-04T02:06:09.615Z,88.3
2018-02-04T02:07:12.039Z,88.4
2018-02-04T02:08:14.459Z,88.4
2018-02-04T02:09:17.168Z,88.4
2018-02-04T02:10:19.588Z,88.3
2018-02-04T02:11:22.011Z,88.3
2018-02-04T02:12:24.452Z,88.2
2018-02-04T02:13:26.893Z,88.4
2018-02-04T02:14:29.625Z,88.4
2018-02-04T02:15:32.034Z,88.3
2018-02-04T02:16:34.453Z,88.3
2018-02-04T02:17:37.163Z,88.3
2018-02-04T02:18:39.587Z,88.3
2018-02-04T02:19:42.000Z,88.3
2018-02-04T02:20:44.434Z,88.3
2018-02-04T02:21:46.855Z,88.3
2018-02-04T02:22:49.289Z,88.3
2018-02-04T02:23:51.709Z,88.4
2018-02-04T02:24:54.146Z,88.3
2018-02-04T02:25:56.577Z,88.3
2018-02-04T02:26:58.993Z,88.4
2018-02-04T02:28:01.416Z,88.3
2018-02-04T02:29:03.853Z,88.4
2018-02-04T02:30:06.290Z,88.4
2018-02-04T02:31:08.709Z,88.4
2018-02-04T02:32:11.136Z,88.4
2018-02-04T02:33:13.569Z,88.5
2018-02-04T02:34:16.002Z,88.5
2018-02-04T02:35:18.707Z,88.5
2018-02-04T02:36:21.398Z,88.5
2018-02-04T02:37:23.829Z,88.5
2018-02-04T02:38:26.544Z,88.4
2018-02-04T02:39:28.954Z,88.5
2018-02-04T02:40:31.384Z,88.6
2018-02-04T02:41:33.820Z,88.4
2018-02-04T02:42:36.244Z,88.5
2018-02-04T02:43:38.676Z,88.5
2018-02-04T02:44:41.093Z,88.4
2018-02-04T02:45:43.514Z,88.4
2018-02-04T02:46:45.954Z,88.3
2018-02-04T02:47:48.366Z,88.2
2018-02-04T02:48:50.796Z,88.2
2018-02-04T02:49:53.225Z,88.2
2018-02-04T02:50:55.647Z,88
2018-02-04T02:51:58.080Z,88
2018-02-04T02:53:00.506Z,88.3
2018-02-04T02:54:02.927Z,88.4
2018-02-04T02:55:05.949Z,88.7
2018-02-04T02:56:08.366Z,88.8
2018-02-04T02:57:10.791Z,89
2018-02-04T02:58:13.210Z,89
2018-02-04T02:59:15.629Z,89
2018-02-04T03:00:18.066Z,89
2018-02-04T03:01:20.490Z,89
2018-02-04T03:02:22.919Z,89.1
2018-02-04T03:03:25.344Z,89.1
2018-02-04T03:04:27.774Z,89.1
2018-02-04T03:05:30.200Z,89.1
2018-02-04T03:06:32.625Z,89.1
2018-02-04T03:07:35.317Z,89.1
2018-02-04T03:08:38.025Z,89.2
2018-02-04T03:09:40.736Z,89.2
2018-02-04T03:10:43.150Z,89.3
2018-02-04T03:11:45.584Z,89.3
2018-02-04T03:12:48.010Z,89.3
2018-02-04T03:13:51.002Z,89.4
2018-02-04T03:14:53.427Z,89.4
2018-02-04T03:15:55.852Z,89.4
2018-02-04T03:16:58.283Z,89.5
2018-02-04T03:18:00.714Z,89.5
2018-02-04T03:19:03.142Z,89.5
2018-02-04T03:20:05.563Z,89.5
2018-02-04T03:21:07.997Z,89.5
2018-02-04T03:22:10.418Z,89.5
2018-02-04T03:23:12.836Z,89.6
2018-02-04T03:24:15.269Z,89.5
2018-02-04T03:25:17.688Z,89.5
2018-02-04T03:26:20.113Z,89.5
2018-02-04T03:27:22.531Z,89.5
2018-02-04T03:28:24.957Z,89.5
2018-02-04T03:29:27.389Z,89.7
2018-02-04T03:30:30.381Z,89.7
2018-02-04T03:31:32.801Z,89.6
2018-02-04T03:32:35.507Z,89.5
2018-02-04T03:33:37.933Z,89.6
2018-02-04T03:34:40.366Z,89.6
2018-02-04T03:35:43.082Z,89.6
2018-02-04T03:36:45.504Z,89.7
2018-02-04T03:37:47.922Z,89.8
2018-02-04T03:38:50.345Z,89.6
2018-02-04T03:39:53.047Z,89.6
2018-02-04T03:40:55.472Z,89.6
2018-02-04T03:41:57.893Z,89.5
2018-02-04T03:43:00.325Z,89.4
2018-02-04T03:44:02.754Z,89.6
2018-02-04T03:45:05.164Z,89.5
2018-02-04T03:46:07.600Z,89.6
2018-02-04T03:47:10.023Z,89.6
2018-02-04T03:48:12.448Z,89.6
2018-02-04T03:49:14.870Z,89.7
2018-02-04T03:50:17.293Z,89.7
2018-02-04T03:51:19.711Z,89.7
2018-02-04T03:52:22.141Z,89.7
2018-02-04T03:53:24.563Z,89.7
2018-02-04T03:54:26.983Z,89.8
2018-02-04T03:55:29.404Z,89.7
2018-02-04T03:56:31.826Z,89.7
2018-02-04T03:57:34.541Z,89.7
2018-02-04T03:58:37.527Z,89.8
2018-02-04T03:59:40.233Z,89.9
2018-02-04T04:00:42.662Z,90
2018-02-04T04:01:45.086Z,90
2018-02-04T04:02:47.506Z,90
2018-02-04T04:03:49.931Z,90
2018-02-04T04:04:52.350Z,90
2018-02-04T04:05:54.776Z,90
2018-02-04T04:06:57.511Z,90
2018-02-04T04:07:59.930Z,90
2018-02-04T04:09:02.361Z,90
2018-02-04T04:10:04.798Z,90
2018-02-04T04:11:07.206Z,90
2018-02-04T04:12:09.637Z,90
2018-02-04T04:13:12.074Z,90
2018-02-04T04:14:14.498Z,90.1
2018-02-04T04:15:17.216Z,90
2018-02-04T04:16:19.939Z,90
2018-02-04T04:17:22.358Z,90
2018-02-04T04:18:24.800Z,90
2018-02-04T04:19:27.223Z,90
2018-02-04T04:20:29.639Z,90
2018-02-04T04:21:32.059Z,90
2018-02-04T04:22:34.489Z,90.1
2018-02-04T04:23:37.191Z,90
2018-02-04T04:24:39.617Z,90
2018-02-04T04:25:42.051Z,90
2018-02-04T04:26:44.473Z,90
2018-02-04T04:27:47.212Z,90
2018-02-04T04:28:49.638Z,90
2018-02-04T04:29:52.049Z,90
2018-02-04T04:30:54.486Z,90
2018-02-04T04:31:56.902Z,90
2018-02-04T04:32:59.317Z,90
2018-02-04T04:34:01.755Z,90
2018-02-04T04:35:04.464Z,90
2018-02-04T04:36:07.180Z,90
2018-02-04T04:37:09.609Z,90
2018-02-04T04:38:12.030Z,90
2018-02-04T04:39:14.459Z,90
2018-02-04T04:40:16.889Z,90
2018-02-04T04:41:19.316Z,90
2018-02-04T04:42:21.743Z,90
2018-02-04T04:43:24.157Z,90
2018-02-04T04:44:26.592Z,90
2018-02-04T04:45:29.008Z,90.1
2018-02-04T04:46:31.426Z,90.1
2018-02-04T04:47:33.849Z,90.1
2018-02-04T04:48:36.553Z,90.1
2018-02-04T04:49:38.981Z,90.2
2018-02-04T04:50:41.417Z,90.1
2018-02-04T04:51:43.822Z,90.1
2018-02-04T04:52:46.257Z,90.1
2018-02-04T04:53:48.678Z,90.1
2018-02-04T04:54:51.104Z,90.1
2018-02-04T04:55:53.524Z,90
2018-02-04T04:56:55.960Z,90
2018-02-04T04:57:58.392Z,90.1
2018-02-04T04:59:01.087Z,90.1
2018-02-04T05:00:03.514Z,90.1
2018-02-04T05:01:05.934Z,90.1
2018-02-04T05:02:08.362Z,90.1
2018-02-04T05:03:10.792Z,90.2
2018-02-04T05:04:13.212Z,90.2
2018-02-04T05:05:15.944Z,90.2
2018-02-04T05:06:18.382Z,90.2
2018-02-04T05:07:20.809Z,90.1
2018-02-04T05:08:23.244Z,90
2018-02-04T05:09:26.010Z,90
2018-02-04T05:10:28.435Z,90
2018-02-04T05:11:30.855Z,90
2018-02-04T05:12:33.276Z,90.1
2018-02-04T05:13:35.701Z,90.1
2018-02-04T05:14:38.119Z,90.1
2018-02-04T05:15:40.525Z,90.2
2018-02-04T05:16:42.953Z,90.2
2018-02-04T05:17:45.369Z,90.2
2018-02-04T05:18:48.107Z,90.2
2018-02-04T05:19:50.540Z,90.2
2018-02-04T05:20:52.963Z,90.2
2018-02-04T05:21:55.954Z,90.3
2018-02-04T05:22:58.377Z,90.2
2018-02-04T05:24:00.790Z,90.2
2018-02-04T05:25:03.217Z,90.2
2018-02-04T05:26:05.635Z,90.2
2018-02-04T05:27:08.067Z,90.3
2018-02-04T05:28:10.496Z,90.2
2018-02-04T05:29:12.916Z,90.2
2018-02-04T05:30:15.339Z,90.2
2018-02-04T05:31:17.773Z,90.2
2018-02-04T05:32:20.196Z,90.2
2018-02-04T05:33:22.623Z,90.2
2018-02-04T05:34:25.054Z,90.2
2018-02-04T05:35:27.471Z,90.2
2018-02-04T05:36:29.904Z,90.2
2018-02-04T05:37:32.326Z,90.1
2018-02-04T05:38:34.749Z,90.1
2018-02-04T05:39:37.182Z,90.1
2018-02-04T05:40:39.598Z,90.1
2018-02-04T05:41:42.016Z,90.1
2018-02-04T05:42:44.439Z,90.1
2018-02-04T05:43:46.861Z,90.1
2018-02-04T05:44:49.288Z,90.1
2018-02-04T05:45:51.710Z,90.1
2018-02-04T05:46:54.128Z,90.1
2018-02-04T05:47:56.550Z,90.1
2018-02-04T05:48:58.989Z,90.1
2018-02-04T05:50:01.414Z,90.1
2018-02-04T05:51:03.825Z,90
2018-02-04T05:52:06.534Z,90
2018-02-04T05:53:08.951Z,90
2018-02-04T05:54:11.382Z,90
2018-02-04T05:55:13.804Z,90
2018-02-04T05:56:16.217Z,90
2018-02-04T05:57:18.650Z,90
2018-02-04T05:58:21.071Z,90
2018-02-04T05:59:23.489Z,90
2018-02-04T06:00:25.919Z,89.9
2018-02-04T06:01:28.644Z,90
2018-02-04T06:02:31.061Z,90
2018-02-04T06:03:33.778Z,90
2018-02-04T06:04:36.197Z,90
2018-02-04T06:05:38.615Z,90
2018-02-04T06:06:41.327Z,90
2018-02-04T06:07:44.067Z,90
2018-02-04T06:08:46.764Z,90
2018-02-04T06:09:49.466Z,89.9
2018-02-04T06:10:51.879Z,89.9
2018-02-04T06:11:54.584Z,89.8
2018-02-04T06:12:57.007Z,89.8
2018-02-04T06:13:59.423Z,89.9
2018-02-04T06:15:01.841Z,89.7
2018-02-04T06:16:04.269Z,89.7
2018-02-04T06:17:06.975Z,89.4
2018-02-04T06:18:09.408Z,89.4
2018-02-04T06:19:11.832Z,89.4
2018-02-04T06:20:14.253Z,89.4
2018-02-04T06:21:16.665Z,89.4
2018-02-04T06:22:19.094Z,89.4
2018-02-04T06:23:21.803Z,89.6
2018-02-04T06:24:24.244Z,89.6
2018-02-04T06:25:26.648Z,89.8
2018-02-04T06:26:29.362Z,89.8
2018-02-04T06:27:31.794Z,89.7
2018-02-04T06:28:34.225Z,89.7
2018-02-04T06:29:36.930Z,89.8
2018-02-04T06:30:39.347Z,89.8
2018-02-04T06:31:41.787Z,89.8
2018-02-04T06:32:44.202Z,89.8
2018-02-04T06:33:46.621Z,89.8
2018-02-04T06:34:49.037Z,89.8
2018-02-04T06:35:51.454Z,89.8
2018-02-04T06:36:54.460Z,89.7
2018-02-04T06:37:56.881Z,89.6
2018-02-04T06:38:59.290Z,89.6
2018-02-04T06:40:02.003Z,89.5
2018-02-04T06:41:04.422Z,89.4
2018-02-04T06:42:06.848Z,89.5
2018-02-04T06:43:09.274Z,89.4
2018-02-04T06:44:11.695Z,89.4
2018-02-04T06:45:14.125Z,89.6
2018-02-04T06:46:16.558Z,89.5
2018-02-04T06:47:18.968Z,89.4
2018-02-04T06:48:21.394Z,89.6
2018-02-04T06:49:23.813Z,89.7
2018-02-04T06:50:26.518Z,89.7
2018-02-04T06:51:28.945Z,89.7
2018-02-04T06:52:31.373Z,89.7
2018-02-04T06:53:34.158Z,89.6
2018-02-04T06:54:36.537Z,89.7
2018-02-04T06:55:38.955Z,89.6
2018-02-04T06:56:41.375Z,89.6
2018-02-04T06:57:44.096Z,89.6
2018-02-04T06:58:46.512Z,89.5
2018-02-04T06:59:48.929Z,89.5
2018-02-04T07:00:51.634Z,89.4
2018-02-04T07:01:54.351Z,89.4
2018-02-04T07:02:57.064Z,89.4
2018-02-04T07:03:59.776Z,89.4
2018-02-04T07:05:02.183Z,89.3
2018-02-04T07:06:04.896Z,89.3
2018-02-04T07:07:07.317Z,89.3
2018-02-04T07:08:09.741Z,89.3
2018-02-04T07:09:12.455Z,89.3
2018-02-04T07:10:14.869Z,89.2
2018-02-04T07:11:17.293Z,89.2
2018-02-04T07:12:19.727Z,89.3
2018-02-04T07:13:22.151Z,89.4
2018-02-04T07:14:24.584Z,89.4
2018-02-04T07:15:27.004Z,89.4
2018-02-04T07:16:29.423Z,89.4
2018-02-04T07:17:31.877Z,89.5
2018-02-04T07:18:34.275Z,89.4
2018-02-04T07:19:36.688Z,89.5
2018-02-04T07:20:39.124Z,89.5
2018-02-04T07:21:41.826Z,89.5
2018-02-04T07:22:44.254Z,89.5
2018-02-04T07:23:46.684Z,89.5
2018-02-04T07:24:49.110Z,89.5
2018-02-04T07:25:51.530Z,89.5
2018-02-04T07:26:53.956Z,89.5
2018-02-04T07:27:56.378Z,89.6
2018-02-04T07:28:58.799Z,89.5
2018-02-04T07:30:01.216Z,89.5
2018-02-04T07:31:03.649Z,89.6
2018-02-04T07:32:06.066Z,89.6
2018-02-04T07:33:08.493Z,89.6
2018-02-04T07:34:10.916Z,89.6
2018-02-04T07:35:13.330Z,89.8
2018-02-04T07:36:15.759Z,89.8
2018-02-04T07:37:18.188Z,89.8
2018-02-04T07:38:20.606Z,89.7
2018-02-04T07:39:23.033Z,89.7
2018-02-04T07:40:25.454Z,89.7
2018-02-04T07:41:27.876Z,89.7
2018-02-04T07:42:30.304Z,89.6
2018-02-04T07:43:32.729Z,89.8
2018-02-04T07:44:35.146Z,89.8
2018-02-04T07:45:37.581Z,89.9
2018-02-04T07:46:39.999Z,89.8
2018-02-04T07:47:42.423Z,89.7
2018-02-04T07:48:44.852Z,89.7
2018-02-04T07:49:47.277Z,89.7
2018-02-04T07:50:49.700Z,89.8
2018-02-04T07:51:52.128Z,89.9
2018-02-04T07:52:54.549Z,90
2018-02-04T07:53:56.973Z,89.9
2018-02-04T07:54:59.402Z,89.8
2018-02-04T07:56:01.832Z,89.9
2018-02-04T07:57:04.249Z,89.9
2018-02-04T07:58:06.675Z,89.9
2018-02-04T07:59:09.105Z,90
2018-02-04T08:00:11.537Z,90
2018-02-04T08:01:13.960Z,90
2018-02-04T08:02:16.390Z,90.1
2018-02-04T08:03:18.806Z,90.1
2018-02-04T08:04:21.244Z,90.1
2018-02-04T08:05:23.668Z,90.1
2018-02-04T08:06:26.092Z,90.1
2018-02-04T08:07:28.795Z,90
2018-02-04T08:08:31.520Z,90.1
2018-02-04T08:09:33.941Z,90.1
2018-02-04T08:10:36.375Z,90.2
2018-02-04T08:11:38.805Z,90.2
2018-02-04T08:12:41.233Z,90.2
2018-02-04T08:13:43.658Z,90.2
2018-02-04T08:14:46.089Z,90.2
2018-02-04T08:15:48.507Z,90.2
2018-02-04T08:16:50.933Z,90.2
2018-02-04T08:17:53.370Z,90.2
2018-02-04T08:18:55.801Z,90.1
2018-02-04T08:19:58.231Z,90.2
2018-02-04T08:21:00.644Z,90.2
2018-02-04T08:22:03.346Z,90.3
2018-02-04T08:23:05.766Z,90.2
2018-02-04T08:24:08.480Z,90.2
2018-02-04T08:25:10.900Z,90.2
2018-02-04T08:26:13.325Z,90.3
2018-02-04T08:27:15.753Z,90.2
2018-02-04T08:28:18.474Z,90.3
2018-02-04T08:29:20.902Z,90.2
2018-02-04T08:30:23.334Z,90.2
2018-02-04T08:31:25.759Z,90.2
2018-02-04T08:32:28.188Z,90.3
2018-02-04T08:33:30.617Z,90.2
2018-02-04T08:34:33.323Z,90.3
2018-02-04T08:35:35.771Z,90.3
2018-02-04T08:36:38.161Z,90.3
2018-02-04T08:37:40.590Z,90.4
2018-02-04T08:38:43.011Z,90.4
2018-02-04T08:39:45.746Z,90.3
2018-02-04T08:40:48.172Z,90.3
2018-02-04T08:41:50.590Z,90.3
2018-02-04T08:42:53.031Z,90.3
2018-02-04T08:43:55.459Z,90.3
2018-02-04T08:44:57.883Z,90.2
2018-02-04T08:46:00.309Z,90.3
2018-02-04T08:47:02.732Z,90.3
2018-02-04T08:48:05.156Z,90.3
2018-02-04T08:49:07.585Z,90.4
2018-02-04T08:50:10.015Z,90.4
2018-02-04T08:51:12.436Z,90.3
2018-02-04T08:52:14.847Z,90.3
2018-02-04T08:53:17.272Z,90.4
2018-02-04T08:54:19.706Z,90.4
2018-02-04T08:55:22.414Z,90.4
2018-02-04T08:56:24.848Z,90.4
2018-02-04T08:57:27.273Z,90.4
2018-02-04T08:58:30.010Z,90.4
2018-02-04T08:59:32.732Z,90.4
2018-02-04T09:00:35.150Z,90.4
2018-02-04T09:01:37.605Z,90.4
2018-02-04T09:02:39.992Z,90.3
2018-02-04T09:03:42.416Z,90.4
2018-02-04T09:04:44.841Z,90.4
2018-02-04T09:05:47.273Z,90.4
2018-02-04T09:06:49.692Z,90.4
2018-02-04T09:07:52.114Z,90.4
2018-02-04T09:08:54.548Z,90.3
2018-02-04T09:09:56.969Z,90.3
2018-02-04T09:10:59.668Z,90.4
2018-02-04T09:12:02.099Z,90.3
2018-02-04T09:13:04.531Z,90.3
2018-02-04T09:14:06.956Z,90.2
2018-02-04T09:15:09.390Z,90.3
2018-02-04T09:16:11.800Z,90.4
2018-02-04T09:17:14.518Z,90.4
2018-02-04T09:18:17.230Z,90.5
2018-02-04T09:19:19.684Z,90.5
2018-02-04T09:20:22.070Z,90.6
2018-02-04T09:21:24.498Z,90.6
2018-02-04T09:22:26.924Z,90.6
2018-02-04T09:23:29.345Z,90.6
2018-02-04T09:24:32.053Z,90.6
2018-02-04T09:25:34.496Z,90.7
2018-02-04T09:26:36.916Z,90.7
2018-02-04T09:27:39.351Z,90.7
2018-02-04T09:28:41.773Z,90.7
2018-02-04T09:29:44.192Z,90.7
2018-02-04T09:30:46.621Z,90.7
2018-02-04T09:31:49.050Z,90.8
2018-02-04T09:32:51.465Z,90.8
2018-02-04T09:33:53.905Z,90.8
2018-02-04T09:34:56.328Z,90.8
2018-02-04T09:35:58.750Z,90.8
2018-02-04T09:37:01.177Z,90.8
2018-02-04T09:38:03.878Z,90.8
2018-02-04T09:39:06.588Z,90.8
2018-02-04T09:40:09.029Z,90.7
2018-02-04T09:41:11.442Z,90.7
2018-02-04T09:42:13.878Z,90.6
2018-02-04T09:43:16.305Z,90.6
2018-02-04T09:44:18.742Z,90.6
2018-02-04T09:45:21.168Z,90.7
2018-02-04T09:46:23.595Z,90.7
2018-02-04T09:47:26.013Z,90.7
2018-02-04T09:48:28.440Z,90.6
2018-02-04T09:49:30.865Z,90.7
2018-02-04T09:50:33.299Z,90.8
2018-02-04T09:51:35.723Z,90.8
2018-02-04T09:52:38.157Z,90.9
2018-02-04T09:53:40.577Z,91.1
2018-02-04T09:54:42.996Z,91.1
2018-02-04T09:55:45.429Z,91.1
2018-02-04T09:56:47.855Z,91.1
2018-02-04T09:57:50.273Z,91.1
2018-02-04T09:58:52.989Z,91.1
2018-02-04T09:59:55.419Z,91.1
2018-02-04T10:00:57.838Z,91.1
2018-02-04T10:02:00.269Z,91.1
2018-02-04T10:03:02.692Z,91.1
2018-02-04T10:04:05.412Z,91.1
2018-02-04T10:05:07.830Z,91
2018-02-04T10:06:10.533Z,91
2018-02-04T10:07:13.254Z,91.1
2018-02-04T10:08:16.254Z,91
2018-02-04T10:09:18.960Z,90.8
2018-02-04T10:10:21.391Z,90.9
2018-02-04T10:11:23.815Z,91
2018-02-04T10:12:26.240Z,91
2018-02-04T10:13:28.986Z,91.1
2018-02-04T10:14:31.449Z,91.1
2018-02-04T10:15:33.862Z,91.2
2018-02-04T10:16:36.286Z,91.3
2018-02-04T10:17:38.727Z,91.3
2018-02-04T10:18:41.159Z,91.3
2018-02-04T10:19:43.588Z,91.3
2018-02-04T10:20:46.018Z,91.3
2018-02-04T10:21:48.740Z,91.3
2018-02-04T10:22:51.152Z,91.3
2018-02-04T10:23:53.576Z,91.3
2018-02-04T10:24:56.297Z,91.3
2018-02-04T10:25:58.716Z,91.2
2018-02-04T10:27:01.152Z,91.2
2018-02-04T10:28:03.862Z,91.2
2018-02-04T10:29:06.588Z,91.2
2018-02-04T10:30:09.312Z,91.3
2018-02-04T10:31:12.048Z,91.1
2018-02-04T10:32:20.714Z,91.1
2018-02-04T10:33:23.068Z,91.2
2018-02-04T10:34:25.735Z,91.1
2018-02-04T10:35:28.110Z,91.1
2018-02-04T10:36:30.486Z,91.1
2018-02-04T10:37:33.136Z,91.2
2018-02-04T10:38:35.516Z,91.2
2018-02-04T10:39:37.883Z,91.2
2018-02-04T10:40:40.256Z,91.1
2018-02-04T10:41:42.621Z,91.1
2018-02-04T10:42:45.276Z,91.1
2018-02-04T10:43:47.648Z,91.1
2018-02-04T10:44:50.024Z,91.2
2018-02-04T10:45:52.672Z,91.2
2018-02-04T10:46:55.048Z,91.2
2018-02-04T10:48:16.652Z,91.2
2018-02-04T10:49:19.073Z,91.1
2018-02-04T10:50:21.778Z,91.2
2018-02-04T10:51:24.220Z,91.2
2018-02-04T10:52:26.641Z,91.2
2018-02-04T10:53:29.068Z,91.3
2018-02-04T10:54:31.493Z,91.3
2018-02-04T10:55:33.912Z,91.2
2018-02-04T10:56:36.344Z,91.2
2018-02-04T10:57:38.785Z,91.1
2018-02-04T10:58:41.184Z,91.1
2018-02-04T10:59:43.609Z,91.1
2018-02-04T11:00:46.034Z,91.2
2018-02-04T11:01:48.461Z,91.2
2018-02-04T11:02:50.891Z,91.1
2018-02-04T11:03:53.309Z,91.2
2018-02-04T11:04:55.735Z,91.3
2018-02-04T11:05:58.169Z,91.3
2018-02-04T11:07:00.592Z,91.3
2018-02-04T11:08:03.025Z,91.3
2018-02-04T11:09:05.730Z,91.3
2018-02-04T11:10:08.160Z,91.3
2018-02-04T11:11:10.593Z,91.3
2018-02-04T11:12:13.320Z,91.4
2018-02-04T11:13:15.737Z,91.3
2018-02-04T11:14:18.159Z,91.3
2018-02-04T11:15:20.586Z,91.3
2018-02-04T11:16:23.018Z,91.3
2018-02-04T11:17:25.447Z,91.3
2018-02-04T11:18:28.154Z,91.3
2018-02-04T11:19:30.576Z,91.3
2018-02-04T11:20:32.995Z,91.4
2018-02-04T11:21:35.724Z,91.3
2018-02-04T11:22:38.145Z,91.3
2018-02-04T11:23:40.579Z,91.3
2018-02-04T11:24:42.996Z,91.4
2018-02-04T11:25:45.423Z,91.5
2018-02-04T11:26:47.852Z,91.6
2018-02-04T11:27:50.558Z,91.5
2018-02-04T11:28:52.987Z,91.4
2018-02-04T11:29:55.414Z,91.4
2018-02-04T11:30:57.832Z,91.5
2018-02-04T11:32:00.275Z,91.4
2018-02-04T11:33:02.702Z,91.3
2018-02-04T11:34:05.125Z,91.4
2018-02-04T11:35:07.546Z,91.5
2018-02-04T11:36:09.977Z,91.6
2018-02-04T11:37:12.407Z,91.5
2018-02-04T11:38:15.121Z,91.4
2018-02-04T11:39:17.532Z,91.3
2018-02-04T11:40:20.242Z,91.2
2018-02-04T11:41:22.662Z,91.1
2018-02-04T11:42:25.096Z,91.1
2018-02-04T11:43:27.521Z,91.2
2018-02-04T11:44:29.949Z,91.3
2018-02-04T11:45:32.375Z,91.4
2018-02-04T11:46:34.866Z,91.3
2018-02-04T11:47:37.236Z,91.3
2018-02-04T11:48:39.718Z,90.8
2018-02-04T11:49:42.100Z,90.6
2018-02-04T11:50:44.519Z,90.7
2018-02-04T11:51:46.945Z,90.8
2018-02-04T11:52:49.671Z,90.8
2018-02-04T11:53:52.096Z,90.9
2018-02-04T11:54:54.529Z,90.8
2018-02-04T11:55:57.242Z,90.9
2018-02-04T11:56:59.660Z,90.9
2018-02-04T11:58:02.103Z,90.9
2018-02-04T11:59:04.801Z,90.9
2018-02-04T12:00:07.224Z,90.9
2018-02-04T12:01:09.656Z,90.7
2018-02-04T12:02:12.081Z,90.7
2018-02-04T12:03:14.508Z,90.9
2018-02-04T12:04:16.942Z,90.9
2018-02-04T12:05:19.367Z,90.9
2018-02-04T12:06:21.790Z,90.9
2018-02-04T12:07:24.216Z,90.9
2018-02-04T12:08:26.641Z,91
2018-02-04T12:09:29.071Z,91.1
2018-02-04T12:10:31.501Z,91.2
2018-02-04T12:11:33.923Z,91.3
2018-02-04T12:12:36.363Z,91.2
2018-02-04T12:13:38.794Z,91.3
2018-02-04T12:14:41.224Z,91.3
2018-02-04T12:15:43.648Z,91.3
2018-02-04T12:16:46.066Z,91.2
2018-02-04T12:17:48.490Z,91.3
2018-02-04T12:18:50.922Z,91
2018-02-04T12:19:53.346Z,90.9
2018-02-04T12:20:55.784Z,90.9
2018-02-04T12:21:58.202Z,91
2018-02-04T12:23:00.628Z,91
2018-02-04T12:24:03.063Z,91.1
2018-02-04T12:25:05.491Z,91.1
2018-02-04T12:26:08.195Z,91.1
2018-02-04T12:27:10.624Z,91.1
2018-02-04T12:28:13.038Z,91
2018-02-04T12:29:15.472Z,91
2018-02-04T12:30:17.904Z,90.9
2018-02-04T12:31:20.322Z,91
2018-02-04T12:32:22.750Z,91.1
2018-02-04T12:33:25.191Z,91.1
2018-02-04T12:34:27.616Z,91.2
2018-02-04T12:35:30.041Z,91.3
2018-02-04T12:36:32.453Z,91.2
2018-02-04T12:37:34.882Z,91
2018-02-04T12:38:37.307Z,90.9
2018-02-04T12:39:39.740Z,90.8
2018-02-04T12:40:42.157Z,90.8
2018-02-04T12:41:44.582Z,90.8
2018-02-04T12:42:47.004Z,90.9
2018-02-04T12:43:49.441Z,90.7
2018-02-04T12:44:51.870Z,90.7
2018-02-04T12:45:54.288Z,90.7
2018-02-04T12:46:56.998Z,90.7
2018-02-04T12:47:59.440Z,90.8
2018-02-04T12:49:02.148Z,90.8
2018-02-04T12:50:04.893Z,90.9
2018-02-04T12:51:07.886Z,90.9
2018-02-04T12:52:10.600Z,90.8
2018-02-04T12:53:13.019Z,90.7
2018-02-04T12:54:15.478Z,90.7
2018-02-04T12:55:17.895Z,90.8
2018-02-04T12:56:20.324Z,90.7
2018-02-04T12:57:22.752Z,90.7
2018-02-04T12:58:25.182Z,90.7
2018-02-04T12:59:27.609Z,90.7
2018-02-04T13:00:30.045Z,90.8
2018-02-04T13:01:32.467Z,90.7
2018-02-04T13:02:34.909Z,90.8
2018-02-04T13:03:37.330Z,90.8
2018-02-04T13:04:39.752Z,90.9
2018-02-04T13:05:42.186Z,90.9
2018-02-04T13:06:44.909Z,90.9
2018-02-04T13:07:47.329Z,90.9
2018-02-04T13:08:49.776Z,90.9
2018-02-04T13:09:52.190Z,90.9
2018-02-04T13:10:54.618Z,90.7
2018-02-04T13:11:57.095Z,90.6
2018-02-04T13:12:59.825Z,90.7
2018-02-04T13:14:02.200Z,91.1
2018-02-04T13:15:04.631Z,91.1
2018-02-04T13:16:07.071Z,91
2018-02-04T13:17:09.475Z,91
2018-02-04T13:18:12.179Z,91.1
2018-02-04T13:19:14.622Z,91.1
2018-02-04T13:20:17.048Z,91.2
2018-02-04T13:21:19.461Z,91.3
2018-02-04T13:22:22.164Z,91.3
2018-02-04T13:23:24.587Z,91.3
2018-02-04T13:24:27.019Z,91.2
2018-02-04T13:25:29.447Z,91.2
2018-02-04T13:26:31.867Z,91.1
2018-02-04T13:27:34.300Z,91.1
2018-02-04T13:28:37.026Z,91
2018-02-04T13:29:39.454Z,90.8
2018-02-04T13:30:41.881Z,90.7
2018-02-04T13:31:44.301Z,90.7
2018-02-04T13:32:46.718Z,90.7
2018-02-04T13:33:49.155Z,90.8
2018-02-04T13:34:52.180Z,90.9
2018-02-04T13:35:54.599Z,91
2018-02-04T13:36:57.032Z,91
2018-02-04T13:37:59.462Z,91
2018-02-04T13:39:02.174Z,91
2018-02-04T13:40:04.603Z,91.1
2018-02-04T13:41:07.020Z,91
2018-02-04T13:42:09.447Z,90.9
2018-02-04T13:43:11.878Z,91
2018-02-04T13:44:14.348Z,91.1
2018-02-04T13:45:16.721Z,91
2018-02-04T13:46:19.143Z,91.1
2018-02-04T13:47:21.581Z,91.1
2018-02-04T13:48:24.008Z,91
2018-02-04T13:49:26.444Z,91.1
2018-02-04T13:50:28.860Z,91.1
2018-02-04T13:51:31.285Z,91
2018-02-04T13:52:33.724Z,91.1
2018-02-04T13:53:36.153Z,91.1
2018-02-04T13:54:38.583Z,91.1
2018-02-04T13:55:41.005Z,91
2018-02-04T13:56:43.426Z,91
2018-02-04T13:57:45.856Z,91
2018-02-04T13:58:48.276Z,90.9
2018-02-04T13:59:50.688Z,90.9